createdAt,value
2022-08-17T00:01:28.945Z,99772.03
2022-08-17T00:04:09.283Z,99772.22
2022-08-17T00:06:44.700Z,99761.34
2022-08-17T00:09:19.593Z,99763.25
2022-08-17T00:12:41.924Z,99764.53
2022-08-17T00:14:45.480Z,99756.69
2022-08-17T00:17:18.351Z,99758.75
2022-08-17T00:19:51.479Z,99756.47
2022-08-17T00:22:32.857Z,99752.19
2022-08-17T00:25:16.607Z,99762.31
2022-08-17T00:27:49.363Z,99758.53
2022-08-17T00:30:22.636Z,99763.41
2022-08-17T00:33:12.286Z,99765.66
2022-08-17T00:35:49.468Z,99766.78
2022-08-17T00:38:23.534Z,99776.91
2022-08-17T00:41:00.627Z,99765.47
2022-08-17T00:43:46.728Z,99774.66
2022-08-17T00:46:26.450Z,99773.91
2022-08-17T00:49:00.045Z,99783.44
2022-08-17T00:51:44.348Z,99776.72
2022-08-17T00:54:33.258Z,99778.97
2022-08-17T00:57:35.259Z,99775.59
2022-08-17T01:00:16.202Z,99778.03
2022-08-17T01:02:49.485Z,99786.06
2022-08-17T01:05:26.052Z,99788.63
2022-08-17T01:08:01.740Z,99792.56
2022-08-17T01:10:58.482Z,99785.59
2022-08-17T01:13:41.166Z,99776.47
2022-08-17T01:16:17.170Z,99775.69
2022-08-17T01:18:54.359Z,99777.31
2022-08-17T01:21:37.035Z,99783.91
2022-08-17T01:24:10.471Z,99790.09
2022-08-17T01:26:44.469Z,99782.81
2022-08-17T01:29:19.242Z,99781.69
2022-08-17T01:31:58.061Z,99787.87
2022-08-17T01:34:42.962Z,99789.16
2022-08-17T01:37:17.958Z,99792.66
2022-08-17T01:40:00.641Z,99791.53
2022-08-17T01:42:40.458Z,99774.72
2022-08-17T01:45:17.907Z,99788.78
2022-08-17T01:47:51.657Z,99793.47
2022-08-17T01:50:28.584Z,99795.16
2022-08-17T01:53:22.155Z,99789.34
2022-08-17T01:56:10.922Z,99793.09
2022-08-17T01:58:49.116Z,99799.28
2022-08-17T02:01:26.609Z,99791.41
2022-08-17T02:04:01.602Z,99783.34
2022-08-17T02:06:45.135Z,99778.31
2022-08-17T02:09:29.623Z,99783.28
2022-08-17T02:12:37.195Z,99783.31
2022-08-17T02:14:56.934Z,99776.00
2022-08-17T02:17:29.634Z,99785.91
2022-08-17T02:20:03.080Z,99777.00
2022-08-17T02:22:37.943Z,99778.34
2022-08-17T02:25:16.324Z,99773.37
2022-08-17T02:27:49.204Z,99771.16
2022-08-17T02:31:01.331Z,99779.59
2022-08-17T02:33:17.453Z,99778.97
2022-08-17T02:35:54.609Z,99776.72
2022-08-17T02:38:27.510Z,99773.75
2022-08-17T02:41:00.642Z,99778.94
2022-08-17T02:43:33.997Z,99787.22
2022-08-17T02:46:06.983Z,99789.22
2022-08-17T02:48:40.135Z,99790.38
2022-08-17T02:51:13.228Z,99788.94
2022-08-17T02:53:46.905Z,99802.37
2022-08-17T02:56:20.179Z,99793.78
2022-08-17T02:58:52.928Z,99799.03
2022-08-17T03:01:26.080Z,99780.91
2022-08-17T03:03:59.302Z,99783.00
2022-08-17T03:06:32.388Z,99795.47
2022-08-17T03:09:05.172Z,99794.16
2022-08-17T03:11:38.189Z,99796.38
2022-08-17T03:14:10.990Z,99798.88
2022-08-17T03:16:44.899Z,99801.28
2022-08-17T03:19:17.709Z,99796.69
2022-08-17T03:21:55.116Z,99802.28
2022-08-17T03:24:29.298Z,99804.09
2022-08-17T03:27:04.543Z,99798.78
2022-08-17T03:29:37.255Z,99811.19
2022-08-17T03:32:15.544Z,99801.53
2022-08-17T03:34:48.704Z,99803.78
2022-08-17T03:37:21.672Z,99804.50
2022-08-17T03:39:54.756Z,99797.81
2022-08-17T03:42:32.015Z,99809.13
2022-08-17T03:45:10.698Z,99815.63
2022-08-17T03:48:02.388Z,99811.75
2022-08-17T03:50:54.018Z,99820.69
2022-08-17T03:53:45.692Z,99818.63
2022-08-17T03:56:37.429Z,99819.00
2022-08-17T03:59:22.673Z,99823.16
2022-08-17T04:01:59.143Z,99831.34
2022-08-17T04:04:32.164Z,99832.50
2022-08-17T04:07:05.673Z,99829.50
2022-08-17T04:09:39.160Z,99836.41
2022-08-17T04:12:14.632Z,99822.84
2022-08-17T04:14:53.465Z,99835.16
2022-08-17T04:17:29.298Z,99831.34
2022-08-17T04:20:15.403Z,99826.00
2022-08-17T04:23:04.952Z,99834.41
2022-08-17T04:25:42.407Z,99840.06
2022-08-17T04:28:16.570Z,99838.50
2022-08-17T04:30:49.868Z,99837.94
2022-08-17T04:33:25.103Z,99838.19
2022-08-17T04:36:02.189Z,99847.59
2022-08-17T04:38:38.703Z,99842.28
2022-08-17T04:41:32.438Z,99851.84
2022-08-17T04:44:05.157Z,99847.59
2022-08-17T04:46:39.033Z,99850.09
2022-08-17T04:49:12.261Z,99853.91
2022-08-17T04:51:54.715Z,99859.50
2022-08-17T04:54:29.804Z,99856.09
2022-08-17T04:57:02.797Z,99857.22
2022-08-17T04:59:35.621Z,99854.41
2022-08-17T05:02:08.654Z,99857.59
2022-08-17T05:04:41.878Z,99861.38
2022-08-17T05:07:17.618Z,99862.13
2022-08-17T05:09:52.780Z,99865.13
2022-08-17T05:12:26.105Z,99854.75
2022-08-17T05:14:58.885Z,99857.28
2022-08-17T05:17:31.959Z,99856.44
2022-08-17T05:20:05.449Z,99854.16
2022-08-17T05:22:49.425Z,99867.00
2022-08-17T05:25:25.785Z,99865.72
2022-08-17T05:28:00.084Z,99860.75
2022-08-17T05:30:35.471Z,99866.13
2022-08-17T05:33:13.015Z,99863.53
2022-08-17T05:35:48.308Z,99866.56
2022-08-17T05:38:23.599Z,99855.25
2022-08-17T05:40:57.346Z,99857.88
2022-08-17T05:43:34.165Z,99867.28
2022-08-17T05:46:28.752Z,99865.59
2022-08-17T05:49:05.047Z,99868.25
2022-08-17T05:51:41.301Z,99867.66
2022-08-17T05:54:14.382Z,99871.59
2022-08-17T05:57:09.081Z,99871.59
2022-08-17T05:59:51.297Z,99870.87
2022-08-17T06:02:52.013Z,99877.06
2022-08-17T06:05:56.353Z,99888.66
2022-08-17T06:08:48.261Z,99886.03
2022-08-17T06:11:55.261Z,99882.88
2022-08-17T06:14:36.485Z,99879.47
2022-08-17T06:17:16.836Z,99888.81
2022-08-17T06:19:57.419Z,99888.47
2022-08-17T06:22:36.191Z,99892.94
2022-08-17T06:25:16.244Z,99894.22
2022-08-17T06:27:53.530Z,99888.84
2022-08-17T06:30:58.345Z,99882.75
2022-08-17T06:33:29.082Z,99885.78
2022-08-17T06:36:17.629Z,99883.47
2022-08-17T06:39:03.231Z,99881.91
2022-08-17T06:41:56.760Z,99882.34
2022-08-17T06:44:51.584Z,99881.44
2022-08-17T06:47:40.892Z,99874.34
2022-08-17T06:50:27.400Z,99888.16
2022-08-17T06:53:25.859Z,99887.47
2022-08-17T06:56:05.468Z,99884.97
2022-08-17T06:58:40.911Z,99896.00
2022-08-17T07:01:18.075Z,99890.94
2022-08-17T07:04:13.634Z,99892.13
2022-08-17T07:06:54.565Z,99896.34
2022-08-17T07:09:46.076Z,99902.00
2022-08-17T07:12:24.721Z,99892.06
2022-08-17T07:15:13.089Z,99894.22
2022-08-17T07:17:49.984Z,99892.69
2022-08-17T07:20:31.305Z,99904.34
2022-08-17T07:23:34.061Z,99900.69
2022-08-17T07:26:09.476Z,99896.44
2022-08-17T07:28:44.833Z,99899.31
2022-08-17T07:31:17.736Z,99892.97
2022-08-17T07:34:14.601Z,99902.16
2022-08-17T07:36:47.364Z,99896.69
2022-08-17T07:39:27.987Z,99899.44
2022-08-17T07:42:05.098Z,99892.25
2022-08-17T07:44:52.778Z,99891.56
2022-08-17T07:47:44.398Z,99891.91
2022-08-17T07:50:29.369Z,99888.41
2022-08-17T07:53:17.980Z,99896.50
2022-08-17T07:55:53.652Z,99895.31
2022-08-17T07:58:26.623Z,99898.00
2022-08-17T08:01:08.246Z,99895.00
2022-08-17T08:03:43.925Z,99900.22
2022-08-17T08:06:23.990Z,99906.62
2022-08-17T08:09:00.536Z,99910.66
2022-08-17T08:11:36.545Z,99900.22
2022-08-17T08:14:31.331Z,99893.66
2022-08-17T08:17:09.384Z,99901.37
2022-08-17T08:19:43.222Z,99904.88
2022-08-17T08:22:28.944Z,99900.53
2022-08-17T08:25:15.014Z,99894.03
2022-08-17T08:28:01.604Z,99902.34
2022-08-17T08:30:45.217Z,99902.81
2022-08-17T08:33:28.867Z,99903.03
2022-08-17T08:37:14.209Z,99904.13
2022-08-17T08:39:37.509Z,99894.56
2022-08-17T08:42:19.356Z,99901.66
2022-08-17T08:45:06.791Z,99888.44
2022-08-17T08:48:12.715Z,99894.31
2022-08-17T08:51:46.570Z,99896.84
2022-08-17T08:54:44.458Z,99895.63
2022-08-17T08:57:26.793Z,99888.19
2022-08-17T09:00:19.425Z,99882.62
2022-08-17T09:03:51.846Z,99889.75
2022-08-17T09:06:44.481Z,99887.41
2022-08-17T09:09:42.386Z,99890.75
2022-08-17T09:12:38.305Z,99893.47
2022-08-17T09:15:20.085Z,99890.50
2022-08-17T09:18:21.383Z,99891.09
2022-08-17T09:21:10.365Z,99888.50
2022-08-17T09:23:51.616Z,99893.44
2022-08-17T09:26:31.031Z,99889.94
2022-08-17T09:29:10.103Z,99879.28
2022-08-17T09:31:59.773Z,99885.19
2022-08-17T09:34:50.972Z,99883.19
2022-08-17T09:37:25.190Z,99889.19
2022-08-17T09:40:09.733Z,99885.19
2022-08-17T09:43:00.824Z,99880.97
2022-08-17T09:45:49.563Z,99886.91
2022-08-17T09:48:26.056Z,99876.03
2022-08-17T09:51:12.776Z,99869.69
2022-08-17T09:53:45.655Z,99878.84
2022-08-17T09:56:21.621Z,99868.09
2022-08-17T09:59:14.020Z,99854.75
2022-08-17T10:02:00.184Z,99868.31
2022-08-17T10:04:45.066Z,99865.44
2022-08-17T10:07:25.090Z,99860.47
2022-08-17T10:10:15.665Z,99867.19
2022-08-17T10:13:06.324Z,99851.44
2022-08-17T10:15:53.681Z,99858.16
2022-08-17T10:19:02.182Z,99860.38
2022-08-17T10:22:01.350Z,99850.75
2022-08-17T10:25:21.588Z,99850.44
2022-08-17T10:28:08.416Z,99860.16
2022-08-17T10:54:51.521Z,99839.00
2022-08-17T11:27:08.902Z,99826.63
2022-08-17T11:30:03.355Z,99826.63
2022-08-17T11:32:54.447Z,99839.34
2022-08-17T11:35:47.235Z,99838.81
2022-08-17T11:38:31.360Z,99836.03
2022-08-17T11:41:27.497Z,99834.59
2022-08-17T11:44:47.515Z,99831.44
2022-08-17T11:48:23.707Z,99824.88
2022-08-17T11:51:17.305Z,99818.69
2022-08-17T11:53:50.318Z,99816.72
2022-08-17T11:56:41.192Z,99808.72
2022-08-17T11:59:50.496Z,99805.31
2022-08-17T12:02:31.538Z,99794.78
2022-08-17T12:05:14.307Z,99790.16
2022-08-17T12:07:51.653Z,99798.19
2022-08-17T12:10:32.026Z,99795.03
2022-08-17T12:13:14.354Z,99797.28
2022-08-17T12:15:51.029Z,99798.25
2022-08-17T12:18:30.530Z,99795.84
2022-08-17T12:21:09.260Z,99791.72
2022-08-17T12:23:55.716Z,99787.37
2022-08-17T12:26:33.506Z,99787.25
2022-08-17T12:29:38.915Z,99780.59
2022-08-17T12:32:07.184Z,99775.09
2022-08-17T12:34:42.720Z,99775.69
2022-08-17T12:37:19.156Z,99775.94
2022-08-17T12:40:02.174Z,99776.38
2022-08-17T12:42:39.398Z,99779.97
2022-08-17T12:45:27.525Z,99776.94
2022-08-17T12:48:13.704Z,99772.66
2022-08-17T12:50:47.295Z,99772.16
2022-08-17T12:53:25.106Z,99779.25
2022-08-17T12:56:00.456Z,99775.59
2022-08-17T12:58:37.935Z,99781.16
2022-08-17T13:01:16.329Z,99768.94
2022-08-17T13:03:57.306Z,99769.91
2022-08-17T13:06:48.318Z,99761.44
2022-08-17T13:09:35.907Z,99751.25
2022-08-17T13:12:13.374Z,99764.25
2022-08-17T13:14:46.557Z,99759.84
2022-08-17T13:17:31.473Z,99751.69
2022-08-17T13:20:14.728Z,99747.72
2022-08-17T13:22:56.112Z,99749.87
2022-08-17T13:25:30.269Z,99747.56
2022-08-17T13:28:03.508Z,99742.91
2022-08-17T13:30:37.859Z,99741.25
2022-08-17T13:33:43.617Z,99747.63
2022-08-17T13:36:30.291Z,99748.87
2022-08-17T13:39:24.240Z,99748.38
2022-08-17T13:41:57.998Z,99756.22
2022-08-17T13:44:33.588Z,99754.28
2022-08-17T13:47:18.329Z,99749.81
2022-08-17T13:49:55.402Z,99743.75
2022-08-17T13:52:40.480Z,99741.22
2022-08-17T13:55:22.966Z,99735.00
2022-08-17T13:57:59.559Z,99732.66
2022-08-17T14:00:40.917Z,99740.16
2022-08-17T14:03:15.400Z,99729.00
2022-08-17T14:05:50.191Z,99738.03
2022-08-17T14:08:23.320Z,99735.59
2022-08-17T14:10:59.305Z,99729.78
2022-08-17T14:13:32.422Z,99728.13
2022-08-17T14:16:05.314Z,99728.41
2022-08-17T14:18:57.124Z,99722.50
2022-08-17T14:21:30.353Z,99731.44
2022-08-17T14:24:04.269Z,99732.72
2022-08-17T14:26:38.579Z,99727.69
2022-08-17T14:29:15.413Z,99721.44
2022-08-17T14:31:54.370Z,99722.66
2022-08-17T14:34:27.997Z,99722.66
2022-08-17T14:37:00.938Z,99724.38
2022-08-17T14:39:34.293Z,99721.97
2022-08-17T14:42:07.449Z,99717.63
2022-08-17T14:44:41.032Z,99715.81
2022-08-17T14:47:13.971Z,99706.50
2022-08-17T14:49:48.549Z,99714.16
2022-08-17T14:52:22.055Z,99717.56
2022-08-17T14:54:55.515Z,99724.19
2022-08-17T14:57:34.316Z,99723.19
2022-08-17T15:00:11.590Z,99724.75
2022-08-17T15:02:56.411Z,99730.38
2022-08-17T15:05:33.740Z,99725.19
2022-08-17T15:08:07.173Z,99733.25
2022-08-17T15:10:40.321Z,99718.53
2022-08-17T15:13:20.368Z,99727.09
2022-08-17T15:15:54.578Z,99733.97
2022-08-17T15:18:27.721Z,99723.22
2022-08-17T15:21:04.451Z,99725.75
2022-08-17T15:23:39.811Z,99729.81
2022-08-17T15:26:13.300Z,99730.75
2022-08-17T15:28:52.195Z,99728.25
2022-08-17T15:31:31.883Z,99729.16
2022-08-17T15:34:07.973Z,99735.25
2022-08-17T15:36:49.254Z,99730.47
2022-08-17T15:39:22.699Z,99734.50
2022-08-17T15:41:58.422Z,99735.41
2022-08-17T15:44:35.069Z,99727.37
2022-08-17T15:47:08.330Z,99735.56
2022-08-17T15:49:41.929Z,99733.81
2022-08-17T15:52:24.417Z,99731.31
2022-08-17T15:55:00.613Z,99717.44
2022-08-17T15:57:36.205Z,99726.03
2022-08-17T16:00:10.312Z,99723.50
2022-08-17T16:03:44.544Z,99733.78
2022-08-17T16:05:40.887Z,99735.91
2022-08-17T16:08:18.498Z,99736.44
2022-08-17T16:10:55.503Z,99728.88
2022-08-17T16:13:28.480Z,99729.81
2022-08-17T16:16:01.576Z,99730.78
2022-08-17T16:18:36.535Z,99719.47
2022-08-17T16:21:25.961Z,99727.59
2022-08-17T16:23:58.813Z,99726.37
2022-08-17T16:26:33.097Z,99728.47
2022-08-17T16:29:07.074Z,99726.50
2022-08-17T16:31:44.810Z,99721.97
2022-08-17T16:34:20.329Z,99727.69
2022-08-17T16:36:56.169Z,99729.66
2022-08-17T16:39:29.703Z,99724.94
2022-08-17T16:42:04.896Z,99730.84
2022-08-17T16:44:37.738Z,99723.16
2022-08-17T16:47:10.882Z,99726.13
2022-08-17T16:49:45.211Z,99730.69
2022-08-17T16:52:32.704Z,99724.03
2022-08-17T16:55:08.540Z,99730.91
2022-08-17T16:57:48.548Z,99735.75
2022-08-17T17:00:23.578Z,99726.34
2022-08-17T17:03:19.769Z,99732.59
2022-08-17T17:06:07.363Z,99731.41
2022-08-17T17:08:48.962Z,99746.56
2022-08-17T17:11:37.141Z,99732.81
2022-08-17T17:14:18.311Z,99737.03
2022-08-17T17:17:16.831Z,99742.09
2022-08-17T17:19:58.913Z,99744.56
2022-08-17T17:22:42.072Z,99748.53
2022-08-17T17:25:20.900Z,99738.88
2022-08-17T17:28:08.997Z,99754.28
2022-08-17T17:30:54.076Z,99750.81
2022-08-17T17:33:48.375Z,99757.00
2022-08-17T17:36:27.833Z,99757.34
2022-08-17T17:39:23.977Z,99748.84
2022-08-17T17:42:07.676Z,99761.06
2022-08-17T17:45:24.080Z,99759.97
2022-08-17T17:47:57.578Z,99764.53
2022-08-17T17:50:37.543Z,99759.56
2022-08-17T17:53:41.618Z,99775.81
2022-08-17T17:56:42.904Z,99769.38
2022-08-17T17:59:29.812Z,99772.56
2022-08-17T18:02:37.831Z,99774.41
2022-08-17T18:05:16.283Z,99765.56
2022-08-17T18:08:16.762Z,99765.50
2022-08-17T18:10:58.886Z,99765.59
2022-08-17T18:14:05.496Z,99776.31
2022-08-17T18:16:48.137Z,99774.00
2022-08-17T18:19:25.129Z,99768.53
2022-08-17T18:22:01.652Z,99789.44
2022-08-17T18:24:38.782Z,99783.22
2022-08-17T18:27:37.491Z,99790.44
2022-08-17T18:30:14.689Z,99799.12
2022-08-17T18:32:48.181Z,99788.28
2022-08-17T18:35:22.392Z,99790.56
2022-08-17T18:38:19.923Z,99798.53
2022-08-17T18:41:00.680Z,99803.00
2022-08-17T18:43:44.288Z,99808.06
2022-08-17T18:46:37.902Z,99803.78
2022-08-17T18:49:20.245Z,99808.13
2022-08-17T18:52:11.787Z,99807.53
2022-08-17T18:55:08.709Z,99801.31
2022-08-17T18:57:45.884Z,99814.00
2022-08-17T19:00:40.649Z,99812.22
2022-08-17T19:03:16.582Z,99812.94
2022-08-17T19:05:54.095Z,99820.41
2022-08-17T19:08:30.205Z,99821.13
2022-08-17T19:11:09.782Z,99818.31
2022-08-17T19:13:42.943Z,99824.13
2022-08-17T19:16:42.225Z,99818.00
2022-08-17T19:19:27.081Z,99817.00
2022-08-17T19:22:28.798Z,99811.03
2022-08-17T19:25:16.065Z,99816.53
2022-08-17T19:28:21.581Z,99815.03
2022-08-17T19:31:04.639Z,99815.94
2022-08-17T19:33:37.860Z,99819.50
2022-08-17T19:36:34.772Z,99816.19
2022-08-17T19:40:05.601Z,99806.81
2022-08-17T19:42:56.556Z,99810.78
2022-08-17T19:45:45.658Z,99818.53
2022-08-17T19:48:18.671Z,99812.16
2022-08-17T19:51:12.752Z,99812.50
2022-08-17T19:54:05.915Z,99811.44
2022-08-17T19:57:09.859Z,99814.78
2022-08-17T20:00:08.288Z,99815.94
2022-08-17T20:03:06.147Z,99814.69
2022-08-17T20:06:10.843Z,99815.59
2022-08-17T20:08:53.927Z,99811.03
2022-08-17T20:11:35.038Z,99818.91
2022-08-17T20:14:16.369Z,99816.50
2022-08-17T20:16:49.261Z,99814.00
2022-08-17T20:20:19.456Z,99824.81
2022-08-17T20:23:11.494Z,99825.19
2022-08-17T20:25:57.525Z,99813.94
2022-08-17T20:28:35.225Z,99825.87
2022-08-17T20:31:49.632Z,99821.88
2022-08-17T20:34:33.644Z,99827.28
2022-08-17T20:37:28.315Z,99829.59
2022-08-17T20:40:04.327Z,99833.16
2022-08-17T20:42:39.536Z,99835.97
2022-08-17T20:45:21.381Z,99837.09
2022-08-17T20:48:35.055Z,99838.19
2022-08-17T20:51:01.029Z,99828.63
2022-08-17T20:53:49.409Z,99829.97
2022-08-17T20:56:44.189Z,99838.72
2022-08-17T20:59:26.129Z,99828.03
2022-08-17T21:02:18.326Z,99837.00
2022-08-17T21:04:54.573Z,99832.91
2022-08-17T21:07:30.395Z,99825.47
2022-08-17T21:10:23.901Z,99828.88
2022-08-17T21:13:12.545Z,99825.13
2022-08-17T21:16:01.206Z,99823.34
2022-08-17T21:18:40.060Z,99829.56
2022-08-17T21:21:26.756Z,99832.91
2022-08-17T21:24:08.640Z,99839.41
2022-08-17T21:27:17.496Z,99844.06
2022-08-17T21:30:13.379Z,99847.31
2022-08-17T21:33:11.834Z,99847.09
2022-08-17T21:35:59.697Z,99853.47
2022-08-17T21:38:41.780Z,99861.25
2022-08-17T21:41:33.958Z,99852.50
2022-08-17T21:44:21.624Z,99856.87
2022-08-17T21:46:54.707Z,99864.84
2022-08-17T21:49:28.794Z,99864.16
2022-08-17T21:52:02.456Z,99859.25
2022-08-17T21:54:39.927Z,99857.94
2022-08-17T21:57:20.406Z,99862.38
2022-08-17T22:00:01.628Z,99868.19
2022-08-17T22:02:38.282Z,99871.50
2022-08-17T22:05:14.613Z,99868.47
2022-08-17T22:07:51.030Z,99864.16
2022-08-17T22:10:40.988Z,99867.94
2022-08-17T22:13:22.243Z,99869.38
2022-08-17T22:16:28.648Z,99877.25
2022-08-17T22:19:04.806Z,99882.72
2022-08-17T22:21:37.930Z,99887.44
2022-08-17T22:24:22.058Z,99892.75
2022-08-17T22:27:03.288Z,99893.16
2022-08-17T22:29:48.176Z,99900.28
2022-08-17T22:32:43.846Z,99898.38
2022-08-17T22:35:40.181Z,99896.94
2022-08-17T22:38:20.017Z,99900.50
2022-08-17T22:41:13.947Z,99899.69
2022-08-17T22:43:48.233Z,99893.16
2022-08-17T22:46:24.019Z,99890.16
2022-08-17T22:48:59.613Z,99885.91
2022-08-17T22:51:32.908Z,99895.69
2022-08-17T22:54:36.237Z,99911.31
2022-08-17T22:57:32.462Z,99914.34
2022-08-17T23:00:35.232Z,99904.97
2022-08-17T23:03:16.020Z,99915.44
2022-08-17T23:06:10.579Z,99909.06
2022-08-17T23:08:50.223Z,99908.31
2022-08-17T23:11:36.902Z,99911.56
2022-08-17T23:14:20.771Z,99903.34
2022-08-17T23:16:53.935Z,99896.41
2022-08-17T23:19:28.170Z,99891.81
2022-08-17T23:22:04.546Z,99883.22
2022-08-17T23:24:46.204Z,99880.06
2022-08-17T23:27:20.221Z,99873.50
2022-08-17T23:29:53.122Z,99870.87
2022-08-17T23:32:26.182Z,99872.00
2022-08-17T23:34:59.841Z,99865.44
2022-08-17T23:37:32.946Z,99870.31
2022-08-17T23:40:06.351Z,99870.87
2022-08-17T23:42:43.379Z,99853.25
2022-08-17T23:45:19.994Z,99858.50
2022-08-17T23:47:53.173Z,99856.59
2022-08-17T23:50:25.998Z,99852.50
2022-08-17T23:53:07.712Z,99852.28
2022-08-17T23:55:40.514Z,99855.13
2022-08-17T23:58:13.523Z,99848.78
